sensor_id;sensor_type;location;lat;lon;timestamp;P1;durP1;ratioP1;P2;durP2;ratioP2
55146;SDS011;41039;49.830;23.988;2024-02-23T00:01:35;2.13;;;1.40;;
55146;SDS011;41039;49.830;23.988;2024-02-23T00:04:00;2.43;;;1.57;;
55146;SDS011;41039;49.830;23.988;2024-02-23T00:06:27;2.65;;;1.83;;
55146;SDS011;41039;49.830;23.988;2024-02-23T00:08:53;2.13;;;1.40;;
55146;SDS011;41039;49.830;23.988;2024-02-23T00:11:19;2.38;;;1.60;;
55146;SDS011;41039;49.830;23.988;2024-02-23T00:13:45;2.70;;;1.58;;
55146;SDS011;41039;49.830;23.988;2024-02-23T00:16:10;2.17;;;1.40;;
55146;SDS011;41039;49.830;23.988;2024-02-23T00:18:36;2.63;;;1.50;;
55146;SDS011;41039;49.830;23.988;2024-02-23T00:21:01;1.80;;;1.20;;
55146;SDS011;41039;49.830;23.988;2024-02-23T00:23:27;2.30;;;1.40;;
55146;SDS011;41039;49.830;23.988;2024-02-23T00:25:53;4.38;;;1.33;;
55146;SDS011;41039;49.830;23.988;2024-02-23T00:28:18;3.28;;;1.48;;
55146;SDS011;41039;49.830;23.988;2024-02-23T00:30:44;2.10;;;1.50;;
55146;SDS011;41039;49.830;23.988;2024-02-23T00:33:09;3.17;;;1.60;;
55146;SDS011;41039;49.830;23.988;2024-02-23T00:35:35;2.03;;;1.30;;
55146;SDS011;41039;49.830;23.988;2024-02-23T00:38:00;2.40;;;1.23;;
55146;SDS011;41039;49.830;23.988;2024-02-23T00:40:25;1.98;;;1.23;;
55146;SDS011;41039;49.830;23.988;2024-02-23T00:42:51;2.07;;;1.27;;
55146;SDS011;41039;49.830;23.988;2024-02-23T00:45:16;2.80;;;1.60;;
55146;SDS011;41039;49.830;23.988;2024-02-23T00:47:42;3.43;;;1.60;;
55146;SDS011;41039;49.830;23.988;2024-02-23T01:00:54;1.75;;;1.20;;
55146;SDS011;41039;49.830;23.988;2024-02-23T01:03:20;2.60;;;1.73;;
55146;SDS011;41039;49.830;23.988;2024-02-23T01:05:45;1.80;;;1.17;;
55146;SDS011;41039;49.830;23.988;2024-02-23T01:08:10;2.75;;;1.40;;
55146;SDS011;41039;49.830;23.988;2024-02-23T01:10:35;2.40;;;1.30;;
55146;SDS011;41039;49.830;23.988;2024-02-23T01:13:01;3.13;;;1.30;;
55146;SDS011;41039;49.830;23.988;2024-02-23T01:15:26;2.60;;;1.17;;
55146;SDS011;41039;49.830;23.988;2024-02-23T01:17:51;3.63;;;1.50;;
55146;SDS011;41039;49.830;23.988;2024-02-23T01:20:16;2.13;;;1.17;;
55146;SDS011;41039;49.830;23.988;2024-02-23T01:22:42;2.00;;;1.00;;
55146;SDS011;41039;49.830;23.988;2024-02-23T01:25:07;2.03;;;1.27;;
55146;SDS011;41039;49.830;23.988;2024-02-23T01:27:32;2.17;;;1.40;;
55146;SDS011;41039;49.830;23.988;2024-02-23T01:29:58;2.10;;;1.10;;
55146;SDS011;41039;49.830;23.988;2024-02-23T01:32:23;3.23;;;1.27;;
55146;SDS011;41039;49.830;23.988;2024-02-23T01:34:48;1.90;;;1.25;;
55146;SDS011;41039;49.830;23.988;2024-02-23T01:37:14;1.73;;;1.17;;
55146;SDS011;41039;49.830;23.988;2024-02-23T01:39:39;2.03;;;1.25;;
55146;SDS011;41039;49.830;23.988;2024-02-23T01:42:04;2.35;;;1.20;;
55146;SDS011;41039;49.830;23.988;2024-02-23T01:44:30;2.30;;;1.03;;
55146;SDS011;41039;49.830;23.988;2024-02-23T01:46:55;2.10;;;1.30;;
55146;SDS011;41039;49.830;23.988;2024-02-23T01:49:20;1.38;;;0.90;;
55146;SDS011;41039;49.830;23.988;2024-02-23T01:51:47;1.88;;;1.10;;
55146;SDS011;41039;49.830;23.988;2024-02-23T01:54:12;1.65;;;1.10;;
55146;SDS011;41039;49.830;23.988;2024-02-23T01:56:38;1.92;;;1.20;;
55146;SDS011;41039;49.830;23.988;2024-02-23T01:59:04;1.95;;;1.30;;
55146;SDS011;41039;49.830;23.988;2024-02-23T02:01:30;1.60;;;1.00;;
55146;SDS011;41039;49.830;23.988;2024-02-23T02:03:55;2.17;;;1.17;;
55146;SDS011;41039;49.830;23.988;2024-02-23T02:06:21;1.27;;;0.85;;
55146;SDS011;41039;49.830;23.988;2024-02-23T02:08:47;1.77;;;1.17;;
55146;SDS011;41039;49.830;23.988;2024-02-23T02:11:12;1.80;;;1.10;;
55146;SDS011;41039;49.830;23.988;2024-02-23T02:13:37;1.73;;;1.00;;
55146;SDS011;41039;49.830;23.988;2024-02-23T02:16:03;1.70;;;0.93;;
55146;SDS011;41039;49.830;23.988;2024-02-23T02:18:28;1.25;;;0.70;;
55146;SDS011;41039;49.830;23.988;2024-02-23T02:20:54;1.67;;;1.00;;
55146;SDS011;41039;49.830;23.988;2024-02-23T02:23:20;1.67;;;1.05;;
55146;SDS011;41039;49.830;23.988;2024-02-23T02:25:45;1.90;;;1.10;;
55146;SDS011;41039;49.830;23.988;2024-02-23T02:28:11;1.80;;;1.05;;
55146;SDS011;41039;49.830;23.988;2024-02-23T02:30:36;1.92;;;1.10;;
55146;SDS011;41039;49.830;23.988;2024-02-23T02:33:01;1.60;;;1.02;;
55146;SDS011;41039;49.830;23.988;2024-02-23T02:35:26;1.58;;;1.00;;
55146;SDS011;41039;49.830;23.988;2024-02-23T02:37:52;1.50;;;1.00;;
55146;SDS011;41039;49.830;23.988;2024-02-23T02:40:17;2.08;;;1.30;;
55146;SDS011;41039;49.830;23.988;2024-02-23T02:42:42;1.73;;;1.00;;
55146;SDS011;41039;49.830;23.988;2024-02-23T02:45:07;2.73;;;0.90;;
55146;SDS011;41039;49.830;23.988;2024-02-23T02:47:33;1.50;;;1.00;;
55146;SDS011;41039;49.830;23.988;2024-02-23T02:49:58;2.27;;;1.00;;
55146;SDS011;41039;49.830;23.988;2024-02-23T02:52:23;1.73;;;1.02;;
55146;SDS011;41039;49.830;23.988;2024-02-23T02:54:49;1.33;;;0.80;;
55146;SDS011;41039;49.830;23.988;2024-02-23T02:57:14;1.10;;;0.70;;
55146;SDS011;41039;49.830;23.988;2024-02-23T02:59:39;1.55;;;0.82;;
55146;SDS011;41039;49.830;23.988;2024-02-23T03:02:04;1.70;;;0.80;;
55146;SDS011;41039;49.830;23.988;2024-02-23T03:04:30;1.40;;;0.83;;
55146;SDS011;41039;49.830;23.988;2024-02-23T03:06:55;1.10;;;0.80;;
55146;SDS011;41039;49.830;23.988;2024-02-23T03:09:20;1.77;;;0.93;;
55146;SDS011;41039;49.830;23.988;2024-02-23T03:11:46;2.65;;;1.20;;
55146;SDS011;41039;49.830;23.988;2024-02-23T03:14:11;1.00;;;0.73;;
55146;SDS011;41039;49.830;23.988;2024-02-23T03:16:36;1.45;;;1.00;;
55146;SDS011;41039;49.830;23.988;2024-02-23T03:19:02;2.58;;;0.90;;
55146;SDS011;41039;49.830;23.988;2024-02-23T03:21:28;1.55;;;0.82;;
55146;SDS011;41039;49.830;23.988;2024-02-23T03:23:53;1.90;;;1.08;;
55146;SDS011;41039;49.830;23.988;2024-02-23T03:26:18;1.33;;;0.80;;
55146;SDS011;41039;49.830;23.988;2024-02-23T03:28:43;1.88;;;0.80;;
55146;SDS011;41039;49.830;23.988;2024-02-23T03:31:09;1.10;;;0.73;;
55146;SDS011;41039;49.830;23.988;2024-02-23T03:33:34;1.08;;;0.70;;
55146;SDS011;41039;49.830;23.988;2024-02-23T03:35:59;1.05;;;0.60;;
55146;SDS011;41039;49.830;23.988;2024-02-23T03:38:24;1.60;;;0.90;;
55146;SDS011;41039;49.830;23.988;2024-02-23T03:40:50;0.98;;;0.68;;
55146;SDS011;41039;49.830;23.988;2024-02-23T03:43:15;2.43;;;0.90;;
55146;SDS011;41039;49.830;23.988;2024-02-23T03:45:40;1.33;;;0.77;;
55146;SDS011;41039;49.830;23.988;2024-02-23T03:48:05;1.10;;;0.80;;
55146;SDS011;41039;49.830;23.988;2024-02-23T03:50:31;1.90;;;1.08;;
55146;SDS011;41039;49.830;23.988;2024-02-23T03:52:56;1.17;;;0.77;;
55146;SDS011;41039;49.830;23.988;2024-02-23T03:55:21;1.47;;;0.80;;
55146;SDS011;41039;49.830;23.988;2024-02-23T03:57:47;1.23;;;0.73;;
55146;SDS011;41039;49.830;23.988;2024-02-23T04:00:12;1.20;;;0.73;;
55146;SDS011;41039;49.830;23.988;2024-02-23T04:02:38;1.25;;;0.80;;
55146;SDS011;41039;49.830;23.988;2024-02-23T04:05:03;1.65;;;0.80;;
55146;SDS011;41039;49.830;23.988;2024-02-23T04:07:29;1.88;;;0.90;;
55146;SDS011;41039;49.830;23.988;2024-02-23T04:09:54;1.23;;;0.90;;
55146;SDS011;41039;49.830;23.988;2024-02-23T04:12:20;1.08;;;0.77;;
55146;SDS011;41039;49.830;23.988;2024-02-23T04:14:45;1.20;;;0.70;;
55146;SDS011;41039;49.830;23.988;2024-02-23T04:17:11;1.20;;;0.80;;
55146;SDS011;41039;49.830;23.988;2024-02-23T04:19:37;1.10;;;0.80;;
55146;SDS011;41039;49.830;23.988;2024-02-23T04:22:02;1.30;;;0.90;;
55146;SDS011;41039;49.830;23.988;2024-02-23T04:24:27;1.98;;;0.70;;
55146;SDS011;41039;49.830;23.988;2024-02-23T04:26:53;1.30;;;0.93;;
55146;SDS011;41039;49.830;23.988;2024-02-23T04:29:18;1.67;;;0.82;;
55146;SDS011;41039;49.830;23.988;2024-02-23T04:31:43;1.13;;;0.80;;
55146;SDS011;41039;49.830;23.988;2024-02-23T04:34:08;1.00;;;0.70;;
55146;SDS011;41039;49.830;23.988;2024-02-23T04:36:34;1.10;;;0.80;;
55146;SDS011;41039;49.830;23.988;2024-02-23T04:38:59;3.60;;;0.90;;
55146;SDS011;41039;49.830;23.988;2024-02-23T04:41:24;1.33;;;0.70;;
55146;SDS011;41039;49.830;23.988;2024-02-23T04:43:49;1.10;;;0.77;;
55146;SDS011;41039;49.830;23.988;2024-02-23T04:46:15;1.08;;;0.77;;
55146;SDS011;41039;49.830;23.988;2024-02-23T04:48:40;1.95;;;1.00;;
55146;SDS011;41039;49.830;23.988;2024-02-23T04:51:06;1.20;;;0.70;;
55146;SDS011;41039;49.830;23.988;2024-02-23T04:53:37;1.20;;;0.70;;
55146;SDS011;41039;49.830;23.988;2024-02-23T04:56:03;0.93;;;0.60;;
55146;SDS011;41039;49.830;23.988;2024-02-23T04:58:28;0.98;;;0.70;;
55146;SDS011;41039;49.830;23.988;2024-02-23T05:00:54;1.03;;;0.73;;
55146;SDS011;41039;49.830;23.988;2024-02-23T05:03:20;1.20;;;0.70;;
55146;SDS011;41039;49.830;23.988;2024-02-23T05:05:45;1.05;;;0.70;;
55146;SDS011;41039;49.830;23.988;2024-02-23T05:08:11;1.37;;;0.90;;
55146;SDS011;41039;49.830;23.988;2024-02-23T05:10:36;1.30;;;0.70;;
55146;SDS011;41039;49.830;23.988;2024-02-23T05:13:01;1.33;;;0.80;;
55146;SDS011;41039;49.830;23.988;2024-02-23T05:15:26;1.20;;;0.70;;
55146;SDS011;41039;49.830;23.988;2024-02-23T05:17:52;1.37;;;0.80;;
55146;SDS011;41039;49.830;23.988;2024-02-23T05:20:17;0.93;;;0.60;;
55146;SDS011;41039;49.830;23.988;2024-02-23T05:22:42;0.98;;;0.65;;
55146;SDS011;41039;49.830;23.988;2024-02-23T05:25:07;1.20;;;0.80;;
55146;SDS011;41039;49.830;23.988;2024-02-23T05:27:33;1.02;;;0.80;;
55146;SDS011;41039;49.830;23.988;2024-02-23T05:29:58;1.63;;;0.70;;
55146;SDS011;41039;49.830;23.988;2024-02-23T05:32:23;0.95;;;0.70;;
55146;SDS011;41039;49.830;23.988;2024-02-23T05:34:49;1.13;;;0.70;;
55146;SDS011;41039;49.830;23.988;2024-02-23T05:37:18;0.88;;;0.60;;
55146;SDS011;41039;49.830;23.988;2024-02-23T05:39:43;1.40;;;0.82;;
55146;SDS011;41039;49.830;23.988;2024-02-23T05:42:10;1.60;;;0.77;;
55146;SDS011;41039;49.830;23.988;2024-02-23T05:44:35;1.15;;;0.75;;
55146;SDS011;41039;49.830;23.988;2024-02-23T05:47:01;1.47;;;0.97;;
55146;SDS011;41039;49.830;23.988;2024-02-23T05:49:26;1.77;;;0.90;;
55146;SDS011;41039;49.830;23.988;2024-02-23T05:51:51;1.43;;;0.80;;
55146;SDS011;41039;49.830;23.988;2024-02-23T05:54:16;1.20;;;0.80;;
55146;SDS011;41039;49.830;23.988;2024-02-23T05:56:43;1.27;;;0.80;;
55146;SDS011;41039;49.830;23.988;2024-02-23T05:59:08;1.23;;;0.80;;
55146;SDS011;41039;49.830;23.988;2024-02-23T06:01:34;1.93;;;0.97;;
55146;SDS011;41039;49.830;23.988;2024-02-23T06:03:59;1.40;;;0.80;;
55146;SDS011;41039;49.830;23.988;2024-02-23T06:06:24;1.10;;;0.68;;
55146;SDS011;41039;49.830;23.988;2024-02-23T06:08:49;1.17;;;0.80;;
55146;SDS011;41039;49.830;23.988;2024-02-23T06:11:16;1.42;;;0.85;;
55146;SDS011;41039;49.830;23.988;2024-02-23T06:13:41;1.45;;;0.90;;
55146;SDS011;41039;49.830;23.988;2024-02-23T06:16:09;1.65;;;0.95;;
55146;SDS011;41039;49.830;23.988;2024-02-23T06:18:35;1.77;;;0.95;;
55146;SDS011;41039;49.830;23.988;2024-02-23T06:21:00;1.45;;;0.80;;
55146;SDS011;41039;49.830;23.988;2024-02-23T06:23:26;1.30;;;0.70;;
55146;SDS011;41039;49.830;23.988;2024-02-23T06:25:51;1.13;;;0.68;;
55146;SDS011;41039;49.830;23.988;2024-02-23T06:28:16;1.70;;;0.88;;
55146;SDS011;41039;49.830;23.988;2024-02-23T06:30:42;0.90;;;0.70;;
55146;SDS011;41039;49.830;23.988;2024-02-23T06:33:07;1.70;;;0.90;;
55146;SDS011;41039;49.830;23.988;2024-02-23T06:35:33;1.42;;;0.88;;
55146;SDS011;41039;49.830;23.988;2024-02-23T06:37:58;1.40;;;0.80;;
55146;SDS011;41039;49.830;23.988;2024-02-23T06:40:23;2.37;;;1.30;;
55146;SDS011;41039;49.830;23.988;2024-02-23T06:42:49;1.58;;;1.00;;
55146;SDS011;41039;49.830;23.988;2024-02-23T06:45:15;1.55;;;1.02;;
55146;SDS011;41039;49.830;23.988;2024-02-23T06:47:40;1.23;;;0.80;;
55146;SDS011;41039;49.830;23.988;2024-02-23T06:50:07;1.08;;;0.80;;
55146;SDS011;41039;49.830;23.988;2024-02-23T06:52:33;1.17;;;0.70;;
55146;SDS011;41039;49.830;23.988;2024-02-23T06:54:58;1.33;;;0.80;;
55146;SDS011;41039;49.830;23.988;2024-02-23T06:57:24;1.40;;;0.80;;
55146;SDS011;41039;49.830;23.988;2024-02-23T06:59:50;1.52;;;0.95;;
55146;SDS011;41039;49.830;23.988;2024-02-23T07:02:16;1.23;;;0.90;;
55146;SDS011;41039;49.830;23.988;2024-02-23T07:04:41;1.63;;;0.93;;
55146;SDS011;41039;49.830;23.988;2024-02-23T07:07:06;1.60;;;0.90;;
55146;SDS011;41039;49.830;23.988;2024-02-23T07:09:32;1.35;;;0.90;;
55146;SDS011;41039;49.830;23.988;2024-02-23T07:11:57;1.90;;;0.90;;
55146;SDS011;41039;49.830;23.988;2024-02-23T07:14:22;1.97;;;1.20;;
55146;SDS011;41039;49.830;23.988;2024-02-23T07:16:48;1.52;;;0.80;;
55146;SDS011;41039;49.830;23.988;2024-02-23T07:19:13;1.17;;;0.80;;
55146;SDS011;41039;49.830;23.988;2024-02-23T07:21:38;1.63;;;0.82;;
55146;SDS011;41039;49.830;23.988;2024-02-23T07:24:04;2.67;;;0.90;;
55146;SDS011;41039;49.830;23.988;2024-02-23T07:26:29;1.58;;;0.98;;
55146;SDS011;41039;49.830;23.988;2024-02-23T07:28:55;1.70;;;1.05;;
55146;SDS011;41039;49.830;23.988;2024-02-23T07:31:20;2.53;;;1.10;;
55146;SDS011;41039;49.830;23.988;2024-02-23T07:33:45;1.30;;;0.73;;
55146;SDS011;41039;49.830;23.988;2024-02-23T07:36:16;2.00;;;1.30;;
55146;SDS011;41039;49.830;23.988;2024-02-23T07:38:42;1.85;;;1.10;;
55146;SDS011;41039;49.830;23.988;2024-02-23T07:41:09;2.40;;;1.13;;
55146;SDS011;41039;49.830;23.988;2024-02-23T07:43:34;1.30;;;0.90;;
55146;SDS011;41039;49.830;23.988;2024-02-23T07:45:59;1.93;;;1.00;;
55146;SDS011;41039;49.830;23.988;2024-02-23T07:48:25;4.05;;;1.20;;
55146;SDS011;41039;49.830;23.988;2024-02-23T07:50:50;1.90;;;1.20;;
55146;SDS011;41039;49.830;23.988;2024-02-23T07:53:15;3.38;;;1.35;;
55146;SDS011;41039;49.830;23.988;2024-02-23T07:55:40;2.73;;;1.33;;
55146;SDS011;41039;49.830;23.988;2024-02-23T07:58:06;2.97;;;1.10;;
55146;SDS011;41039;49.830;23.988;2024-02-23T08:00:31;3.60;;;1.30;;
55146;SDS011;41039;49.830;23.988;2024-02-23T08:02:57;3.65;;;1.40;;
55146;SDS011;41039;49.830;23.988;2024-02-23T08:05:22;3.70;;;1.50;;
55146;SDS011;41039;49.830;23.988;2024-02-23T08:07:48;3.08;;;1.10;;
55146;SDS011;41039;49.830;23.988;2024-02-23T08:10:14;3.08;;;1.10;;
55146;SDS011;41039;49.830;23.988;2024-02-23T08:12:39;2.35;;;1.20;;
55146;SDS011;41039;49.830;23.988;2024-02-23T08:15:05;1.83;;;1.02;;
55146;SDS011;41039;49.830;23.988;2024-02-23T08:17:30;1.98;;;1.08;;
55146;SDS011;41039;49.830;23.988;2024-02-23T08:19:56;2.10;;;1.20;;
55146;SDS011;41039;49.830;23.988;2024-02-23T08:22:21;1.77;;;1.10;;
55146;SDS011;41039;49.830;23.988;2024-02-23T08:24:48;1.55;;;0.70;;
55146;SDS011;41039;49.830;23.988;2024-02-23T08:27:13;3.10;;;1.07;;
55146;SDS011;41039;49.830;23.988;2024-02-23T08:29:38;2.93;;;0.80;;
55146;SDS011;41039;49.830;23.988;2024-02-23T08:32:04;1.05;;;0.70;;
55146;SDS011;41039;49.830;23.988;2024-02-23T08:34:29;1.52;;;0.75;;
55146;SDS011;41039;49.830;23.988;2024-02-23T08:36:54;1.87;;;0.90;;
55146;SDS011;41039;49.830;23.988;2024-02-23T08:39:20;1.60;;;0.97;;
55146;SDS011;41039;49.830;23.988;2024-02-23T08:41:47;3.47;;;1.10;;
55146;SDS011;41039;49.830;23.988;2024-02-23T08:44:12;1.25;;;0.60;;
55146;SDS011;41039;49.830;23.988;2024-02-23T08:46:37;1.50;;;0.77;;
55146;SDS011;41039;49.830;23.988;2024-02-23T08:49:04;1.83;;;0.98;;
55146;SDS011;41039;49.830;23.988;2024-02-23T08:51:29;1.48;;;0.80;;
55146;SDS011;41039;49.830;23.988;2024-02-23T08:53:54;1.80;;;0.80;;
55146;SDS011;41039;49.830;23.988;2024-02-23T08:56:22;1.40;;;0.80;;
55146;SDS011;41039;49.830;23.988;2024-02-23T08:58:47;1.00;;;0.60;;
55146;SDS011;41039;49.830;23.988;2024-02-23T09:01:12;2.30;;;0.93;;
55146;SDS011;41039;49.830;23.988;2024-02-23T09:03:37;1.40;;;0.93;;
55146;SDS011;41039;49.830;23.988;2024-02-23T09:06:03;1.57;;;0.80;;
55146;SDS011;41039;49.830;23.988;2024-02-23T09:08:28;1.73;;;0.90;;
55146;SDS011;41039;49.830;23.988;2024-02-23T09:10:53;1.70;;;0.93;;
55146;SDS011;41039;49.830;23.988;2024-02-23T09:13:19;1.57;;;0.80;;
55146;SDS011;41039;49.830;23.988;2024-02-23T09:15:44;1.35;;;0.70;;
55146;SDS011;41039;49.830;23.988;2024-02-23T09:18:09;1.50;;;0.85;;
55146;SDS011;41039;49.830;23.988;2024-02-23T09:20:35;1.30;;;0.80;;
55146;SDS011;41039;49.830;23.988;2024-02-23T09:23:00;1.70;;;0.70;;
55146;SDS011;41039;49.830;23.988;2024-02-23T09:25:25;1.10;;;0.70;;
55146;SDS011;41039;49.830;23.988;2024-02-23T09:27:50;1.25;;;0.80;;
55146;SDS011;41039;49.830;23.988;2024-02-23T09:30:16;2.07;;;0.70;;
55146;SDS011;41039;49.830;23.988;2024-02-23T09:32:41;2.70;;;1.00;;
55146;SDS011;41039;49.830;23.988;2024-02-23T09:35:07;1.20;;;0.85;;
55146;SDS011;41039;49.830;23.988;2024-02-23T09:37:32;1.48;;;0.70;;
55146;SDS011;41039;49.830;23.988;2024-02-23T09:39:57;1.75;;;0.85;;
55146;SDS011;41039;49.830;23.988;2024-02-23T09:42:23;1.40;;;0.73;;
55146;SDS011;41039;49.830;23.988;2024-02-23T09:45:00;1.40;;;0.60;;
55146;SDS011;41039;49.830;23.988;2024-02-23T09:47:29;1.58;;;0.70;;
55146;SDS011;41039;49.830;23.988;2024-02-23T09:49:55;1.60;;;0.90;;
55146;SDS011;41039;49.830;23.988;2024-02-23T09:52:20;1.30;;;0.80;;
55146;SDS011;41039;49.830;23.988;2024-02-23T09:54:46;1.17;;;0.70;;
55146;SDS011;41039;49.830;23.988;2024-02-23T09:57:11;1.23;;;0.68;;
55146;SDS011;41039;49.830;23.988;2024-02-23T09:59:37;1.70;;;0.77;;
55146;SDS011;41039;49.830;23.988;2024-02-23T10:02:08;1.45;;;0.70;;
55146;SDS011;41039;49.830;23.988;2024-02-23T10:04:37;2.78;;;0.75;;
55146;SDS011;41039;49.830;23.988;2024-02-23T10:07:04;1.52;;;0.68;;
55146;SDS011;41039;49.830;23.988;2024-02-23T10:09:29;1.48;;;0.73;;
55146;SDS011;41039;49.830;23.988;2024-02-23T10:11:55;1.45;;;0.90;;
55146;SDS011;41039;49.830;23.988;2024-02-23T10:14:20;1.98;;;0.70;;
55146;SDS011;41039;49.830;23.988;2024-02-23T10:16:46;1.70;;;0.75;;
55146;SDS011;41039;49.830;23.988;2024-02-23T10:19:11;1.25;;;0.65;;
55146;SDS011;41039;49.830;23.988;2024-02-23T10:21:36;1.40;;;0.80;;
55146;SDS011;41039;49.830;23.988;2024-02-23T10:24:01;2.00;;;0.77;;
55146;SDS011;41039;49.830;23.988;2024-02-23T10:26:27;1.52;;;0.70;;
55146;SDS011;41039;49.830;23.988;2024-02-23T10:28:52;1.52;;;0.70;;
55146;SDS011;41039;49.830;23.988;2024-02-23T10:31:18;1.30;;;0.80;;
55146;SDS011;41039;49.830;23.988;2024-02-23T10:33:44;1.42;;;0.82;;
55146;SDS011;41039;49.830;23.988;2024-02-23T10:36:09;1.15;;;0.52;;
55146;SDS011;41039;49.830;23.988;2024-02-23T10:38:37;2.00;;;1.05;;
55146;SDS011;41039;49.830;23.988;2024-02-23T10:41:04;2.05;;;0.98;;
55146;SDS011;41039;49.830;23.988;2024-02-23T10:43:33;1.67;;;0.82;;
55146;SDS011;41039;49.830;23.988;2024-02-23T10:45:59;1.85;;;0.93;;
55146;SDS011;41039;49.830;23.988;2024-02-23T10:48:27;1.58;;;0.90;;
55146;SDS011;41039;49.830;23.988;2024-02-23T10:50:53;2.45;;;1.00;;
55146;SDS011;41039;49.830;23.988;2024-02-23T10:53:18;2.15;;;0.93;;
55146;SDS011;41039;49.830;23.988;2024-02-23T10:55:44;1.42;;;0.80;;
55146;SDS011;41039;49.830;23.988;2024-02-23T10:58:10;1.17;;;0.80;;
55146;SDS011;41039;49.830;23.988;2024-02-23T11:00:37;1.77;;;0.90;;
55146;SDS011;41039;49.830;23.988;2024-02-23T11:03:03;1.50;;;0.90;;
55146;SDS011;41039;49.830;23.988;2024-02-23T11:05:29;1.38;;;0.70;;
55146;SDS011;41039;49.830;23.988;2024-02-23T11:07:58;1.60;;;0.82;;
55146;SDS011;41039;49.830;23.988;2024-02-23T11:10:23;2.88;;;0.90;;
55146;SDS011;41039;49.830;23.988;2024-02-23T11:12:58;1.58;;;0.63;;
55146;SDS011;41039;49.830;23.988;2024-02-23T11:15:28;0.90;;;0.50;;
55146;SDS011;41039;49.830;23.988;2024-02-23T11:17:54;2.80;;;0.80;;
55146;SDS011;41039;49.830;23.988;2024-02-23T11:20:20;1.02;;;0.60;;
55146;SDS011;41039;49.830;23.988;2024-02-23T11:22:51;2.17;;;0.80;;
55146;SDS011;41039;49.830;23.988;2024-02-23T11:25:17;2.75;;;0.63;;
55146;SDS011;41039;49.830;23.988;2024-02-23T11:27:42;3.25;;;0.80;;
55146;SDS011;41039;49.830;23.988;2024-02-23T11:30:09;2.00;;;0.70;;
55146;SDS011;41039;49.830;23.988;2024-02-23T11:32:39;3.15;;;1.02;;
55146;SDS011;41039;49.830;23.988;2024-02-23T11:35:09;2.08;;;0.80;;
55146;SDS011;41039;49.830;23.988;2024-02-23T11:40:13;1.02;;;0.60;;
55146;SDS011;41039;49.830;23.988;2024-02-23T11:42:39;1.05;;;0.60;;
55146;SDS011;41039;49.830;23.988;2024-02-23T11:45:06;1.77;;;0.95;;
55146;SDS011;41039;49.830;23.988;2024-02-23T11:47:31;1.58;;;0.70;;
55146;SDS011;41039;49.830;23.988;2024-02-23T11:49:57;1.33;;;0.70;;
55146;SDS011;41039;49.830;23.988;2024-02-23T11:52:22;1.27;;;0.70;;
55146;SDS011;41039;49.830;23.988;2024-02-23T11:54:47;1.47;;;0.70;;
55146;SDS011;41039;49.830;23.988;2024-02-23T11:57:12;2.63;;;0.63;;
55146;SDS011;41039;49.830;23.988;2024-02-23T11:59:39;2.28;;;0.75;;
55146;SDS011;41039;49.830;23.988;2024-02-23T12:02:05;1.95;;;0.90;;
55146;SDS011;41039;49.830;23.988;2024-02-23T12:04:32;0.73;;;0.43;;
55146;SDS011;41039;49.830;23.988;2024-02-23T12:06:57;1.23;;;0.80;;
55146;SDS011;41039;49.830;23.988;2024-02-23T12:09:22;1.17;;;0.63;;
55146;SDS011;41039;49.830;23.988;2024-02-23T12:11:48;2.85;;;0.60;;
55146;SDS011;41039;49.830;23.988;2024-02-23T12:14:13;1.07;;;0.60;;
55146;SDS011;41039;49.830;23.988;2024-02-23T12:16:39;1.40;;;0.70;;
55146;SDS011;41039;49.830;23.988;2024-02-23T12:19:07;1.00;;;0.45;;
55146;SDS011;41039;49.830;23.988;2024-02-23T12:21:34;1.27;;;0.68;;
55146;SDS011;41039;49.830;23.988;2024-02-23T12:23:59;2.10;;;0.70;;
55146;SDS011;41039;49.830;23.988;2024-02-23T12:26:24;0.90;;;0.55;;
55146;SDS011;41039;49.830;23.988;2024-02-23T12:28:49;1.03;;;0.70;;
55146;SDS011;41039;49.830;23.988;2024-02-23T12:31:15;1.60;;;0.60;;
55146;SDS011;41039;49.830;23.988;2024-02-23T12:33:40;0.70;;;0.40;;
55146;SDS011;41039;49.830;23.988;2024-02-23T12:36:06;1.98;;;0.50;;
55146;SDS011;41039;49.830;23.988;2024-02-23T12:38:31;0.98;;;0.55;;
55146;SDS011;41039;49.830;23.988;2024-02-23T12:40:57;1.40;;;0.70;;
55146;SDS011;41039;49.830;23.988;2024-02-23T12:43:23;1.23;;;0.60;;
55146;SDS011;41039;49.830;23.988;2024-02-23T12:45:54;1.08;;;0.60;;
55146;SDS011;41039;49.830;23.988;2024-02-23T12:48:20;0.95;;;0.40;;
55146;SDS011;41039;49.830;23.988;2024-02-23T12:50:45;1.58;;;0.50;;
55146;SDS011;41039;49.830;23.988;2024-02-23T12:53:30;1.20;;;0.60;;
55146;SDS011;41039;49.830;23.988;2024-02-23T12:55:59;1.45;;;0.50;;
55146;SDS011;41039;49.830;23.988;2024-02-23T12:58:24;0.85;;;0.52;;
55146;SDS011;41039;49.830;23.988;2024-02-23T13:00:49;1.58;;;0.60;;
55146;SDS011;41039;49.830;23.988;2024-02-23T13:03:15;1.03;;;0.60;;
55146;SDS011;41039;49.830;23.988;2024-02-23T13:05:40;1.15;;;0.60;;
55146;SDS011;41039;49.830;23.988;2024-02-23T13:08:05;1.37;;;0.60;;
55146;SDS011;41039;49.830;23.988;2024-02-23T13:10:30;1.30;;;0.82;;
55146;SDS011;41039;49.830;23.988;2024-02-23T13:12:56;0.98;;;0.55;;
55146;SDS011;41039;49.830;23.988;2024-02-23T13:15:21;0.93;;;0.60;;
55146;SDS011;41039;49.830;23.988;2024-02-23T13:17:47;1.83;;;0.70;;
55146;SDS011;41039;49.830;23.988;2024-02-23T13:20:12;1.10;;;0.60;;
55146;SDS011;41039;49.830;23.988;2024-02-23T13:22:37;1.15;;;0.60;;
55146;SDS011;41039;49.830;23.988;2024-02-23T13:25:03;1.02;;;0.60;;
55146;SDS011;41039;49.830;23.988;2024-02-23T13:27:28;2.25;;;0.75;;
55146;SDS011;41039;49.830;23.988;2024-02-23T13:29:54;1.63;;;0.82;;
55146;SDS011;41039;49.830;23.988;2024-02-23T13:32:19;0.87;;;0.60;;
55146;SDS011;41039;49.830;23.988;2024-02-23T13:34:45;1.07;;;0.77;;
55146;SDS011;41039;49.830;23.988;2024-02-23T13:37:10;1.30;;;0.60;;
55146;SDS011;41039;49.830;23.988;2024-02-23T13:39:35;2.23;;;0.80;;
55146;SDS011;41039;49.830;23.988;2024-02-23T13:42:00;1.83;;;0.60;;
55146;SDS011;41039;49.830;23.988;2024-02-23T13:44:26;0.77;;;0.52;;
55146;SDS011;41039;49.830;23.988;2024-02-23T13:46:51;1.57;;;0.73;;
55146;SDS011;41039;49.830;23.988;2024-02-23T13:49:16;1.40;;;0.77;;
55146;SDS011;41039;49.830;23.988;2024-02-23T13:51:41;1.03;;;0.60;;
55146;SDS011;41039;49.830;23.988;2024-02-23T13:54:07;1.65;;;0.93;;
55146;SDS011;41039;49.830;23.988;2024-02-23T13:56:32;1.20;;;0.67;;
55146;SDS011;41039;49.830;23.988;2024-02-23T13:58:57;1.47;;;0.80;;
55146;SDS011;41039;49.830;23.988;2024-02-23T14:01:22;0.70;;;0.50;;
55146;SDS011;41039;49.830;23.988;2024-02-23T14:03:47;1.50;;;0.90;;
55146;SDS011;41039;49.830;23.988;2024-02-23T14:06:13;1.77;;;0.70;;
55146;SDS011;41039;49.830;23.988;2024-02-23T14:08:38;2.20;;;1.08;;
55146;SDS011;41039;49.830;23.988;2024-02-23T14:11:03;1.88;;;0.77;;
55146;SDS011;41039;49.830;23.988;2024-02-23T14:13:32;1.20;;;0.70;;
55146;SDS011;41039;49.830;23.988;2024-02-23T14:15:58;1.17;;;0.70;;
55146;SDS011;41039;49.830;23.988;2024-02-23T14:18:23;2.15;;;0.80;;
55146;SDS011;41039;49.830;23.988;2024-02-23T14:20:48;2.63;;;0.90;;
55146;SDS011;41039;49.830;23.988;2024-02-23T14:23:13;1.20;;;0.60;;
55146;SDS011;41039;49.830;23.988;2024-02-23T14:25:39;1.80;;;0.73;;
55146;SDS011;41039;49.830;23.988;2024-02-23T14:28:04;1.27;;;0.70;;
55146;SDS011;41039;49.830;23.988;2024-02-23T14:30:29;2.67;;;0.90;;
55146;SDS011;41039;49.830;23.988;2024-02-23T14:32:54;1.93;;;0.90;;
55146;SDS011;41039;49.830;23.988;2024-02-23T14:35:20;1.52;;;0.70;;
55146;SDS011;41039;49.830;23.988;2024-02-23T14:37:45;1.58;;;0.82;;